Time;durP1;ratioP1;P1;durP2;ratioP2;P2;SDS_P1;SDS_P2;PMS_P1;PMS_P2;Temp;Humidity;BMP_temperature;BMP_pressure;BME280_temperature;BME280_humidity;BME280_pressure;Samples;Min_cycle;Max_cycle;Signal;HPM_P1;HPM_P2
2021/07/09 00:01:50;;;;;;;5.25;2.50;;;27.50;54.40;;;;;;5092609;28;20054;-65
2021/07/09 00:04:16;;;;;;;4.78;2.33;;;27.50;54.60;;;;;;5091618;28;20024;-66
2021/07/09 00:06:43;;;;;;;4.25;2.53;;;27.50;54.60;;;;;;5092054;28;20027;-67
2021/07/09 00:09:09;;;;;;;5.65;2.55;;;27.50;54.70;;;;;;5073771;28;20032;-66
2021/07/09 00:11:38;;;;;;;4.47;2.47;;;27.50;54.60;;;;;;5073337;28;20051;-66
2021/07/09 00:14:08;;;;;;;5.85;2.50;;;27.60;54.50;;;;;;5091442;28;20024;-65
2021/07/09 00:16:34;;;;;;;5.10;2.13;;;27.60;54.50;;;;;;5091362;28;20055;-65
2021/07/09 00:19:02;;;;;;;4.65;2.30;;;27.70;54.50;;;;;;5092145;28;20097;-68
2021/07/09 00:21:28;;;;;;;6.50;2.50;;;27.60;54.40;;;;;;5072755;28;20345;-65
2021/07/09 00:23:54;;;;;;;7.50;2.67;;;27.50;54.60;;;;;;5091394;28;20047;-66
2021/07/09 00:26:19;;;;;;;3.20;2.25;;;27.60;54.70;;;;;;5091663;28;20055;-64
2021/07/09 00:28:45;;;;;;;5.32;2.63;;;27.50;54.90;;;;;;5091653;28;20523;-67
2021/07/09 00:31:11;;;;;;;5.45;2.40;;;27.60;55.10;;;;;;5073446;28;20024;-65
2021/07/09 00:33:36;;;;;;;4.28;2.40;;;27.50;55.10;;;;;;5090702;28;20110;-65
2021/07/09 00:36:02;;;;;;;4.63;2.53;;;27.50;55.30;;;;;;5091326;28;20024;-65
2021/07/09 00:38:28;;;;;;;3.97;2.47;;;27.40;55.60;;;;;;5091114;28;20077;-57
2021/07/09 00:40:54;;;;;;;11.10;2.63;;;27.20;56.20;;;;;;5074063;28;20032;-61
2021/07/09 00:43:20;;;;;;;3.90;2.53;;;27.00;56.80;;;;;;5073706;28;20462;-62
2021/07/09 00:45:46;;;;;;;3.20;2.30;;;26.70;57.30;;;;;;5074036;28;20028;-61
2021/07/09 00:48:11;;;;;;;7.88;2.50;;;26.80;57.70;;;;;;5091622;28;20062;-61
2021/07/09 00:50:37;;;;;;;4.88;2.67;;;26.70;57.40;;;;;;5072658;28;20031;-61
2021/07/09 00:53:03;;;;;;;5.40;2.67;;;26.70;57.50;;;;;;5091188;28;20029;-59
2021/07/09 00:55:29;;;;;;;3.80;2.40;;;26.70;57.70;;;;;;5090955;28;20052;-60
2021/07/09 00:57:55;;;;;;;6.35;2.70;;;26.60;57.90;;;;;;5091344;28;20199;-62
2021/07/09 01:00:22;;;;;;;7.63;2.72;;;26.60;58.00;;;;;;5090368;28;20020;-60
2021/07/09 01:02:48;;;;;;;4.85;2.30;;;26.40;58.30;;;;;;5092154;28;20031;-60
2021/07/09 01:05:17;;;;;;;5.40;2.42;;;26.40;58.30;;;;;;5091369;28;20020;-57
2021/07/09 01:07:43;;;;;;;3.20;2.05;;;26.30;58.60;;;;;;5090679;28;20121;-61
2021/07/09 01:10:11;;;;;;;4.70;2.00;;;26.20;58.50;;;;;;5091640;28;20474;-59
2021/07/09 01:12:38;;;;;;;5.47;1.40;;;26.10;58.80;;;;;;5091053;28;20032;-61
2021/07/09 01:15:06;;;;;;;4.75;1.52;;;26.10;58.60;;;;;;5090884;28;20074;-60
2021/07/09 01:17:32;;;;;;;6.50;1.40;;;26.00;58.90;;;;;;5072985;28;20168;-60
2021/07/09 01:19:57;;;;;;;6.75;1.38;;;26.00;59.10;;;;;;5073168;28;20454;-65
2021/07/09 01:22:27;;;;;;;1.67;0.95;;;26.10;58.80;;;;;;5090307;28;20489;-60
2021/07/09 01:24:53;;;;;;;3.53;1.10;;;26.10;58.50;;;;;;5091030;28;20027;-60
2021/07/09 01:27:19;;;;;;;3.40;1.23;;;26.10;58.70;;;;;;5090844;28;20024;-60
2021/07/09 01:29:45;;;;;;;15.32;2.72;;;26.20;58.60;;;;;;5090702;28;20469;-59
2021/07/09 01:32:12;;;;;;;12.43;2.60;;;26.20;60.00;;;;;;5091214;28;20032;-60
2021/07/09 01:34:38;;;;;;;10.80;1.80;;;26.00;61.90;;;;;;5072186;28;20082;-60
2021/07/09 01:37:15;;;;;;;9.40;2.22;;;25.60;62.90;;;;;;5074968;28;20331;-59
2021/07/09 01:39:41;;;;;;;7.95;1.80;;;25.20;65.40;;;;;;5093960;28;20024;-59
2021/07/09 01:42:07;;;;;;;6.93;1.70;;;24.80;66.40;;;;;;5094259;28;20075;-60
2021/07/09 01:44:38;;;;;;;8.20;1.75;;;24.50;67.90;;;;;;5094167;28;20075;-60
2021/07/09 01:47:05;;;;;;;3.08;1.10;;;24.30;68.70;;;;;;5094420;28;20382;-60
2021/07/09 01:49:46;;;;;;;3.28;1.10;;;24.20;68.60;;;;;;5093463;28;20454;-62
2021/07/09 01:52:12;;;;;;;3.63;0.95;;;24.10;68.50;;;;;;5094311;28;20110;-63
2021/07/09 01:54:38;;;;;;;3.58;1.40;;;24.10;68.20;;;;;;5094202;28;20476;-61
2021/07/09 01:57:03;;;;;;;3.15;0.95;;;24.20;68.00;;;;;;5076285;28;20024;-60
2021/07/09 01:59:29;;;;;;;4.05;1.20;;;24.10;68.20;;;;;;5093422;28;20050;-59
2021/07/09 02:01:55;;;;;;;2.30;1.00;;;24.00;68.30;;;;;;5094181;28;20031;-60
2021/07/09 02:04:20;;;;;;;2.65;0.98;;;24.00;67.30;;;;;;5093986;28;20055;-61
2021/07/09 02:06:46;;;;;;;2.08;1.00;;;24.10;67.50;;;;;;5094667;28;20127;-61
2021/07/09 02:09:12;;;;;;;2.85;0.90;;;24.20;67.20;;;;;;5094019;28;20028;-59
2021/07/09 02:11:37;;;;;;;1.60;0.80;;;24.20;66.50;;;;;;5093512;28;20071;-60
2021/07/09 02:14:03;;;;;;;2.70;1.08;;;24.10;66.50;;;;;;5093480;28;20390;-61
2021/07/09 02:16:29;;;;;;;2.97;0.90;;;24.10;66.90;;;;;;5093313;28;20373;-59
2021/07/09 02:18:55;;;;;;;3.30;0.98;;;24.30;66.10;;;;;;5094067;28;20028;-61
2021/07/09 02:21:20;;;;;;;1.85;0.80;;;24.20;66.00;;;;;;5093196;28;20028;-60
2021/07/09 02:23:46;;;;;;;2.38;0.70;;;24.10;66.40;;;;;;5075016;28;20098;-60
2021/07/09 02:26:12;;;;;;;2.67;0.80;;;24.10;65.80;;;;;;5093856;28;20523;-61
2021/07/09 02:28:38;;;;;;;1.75;0.85;;;24.20;65.80;;;;;;5093035;28;20024;-60
2021/07/09 02:31:03;;;;;;;2.13;0.70;;;24.10;65.20;;;;;;5075281;28;20035;-59
2021/07/09 02:33:29;;;;;;;2.25;0.73;;;24.20;65.50;;;;;;5092595;28;20028;-57
2021/07/09 02:35:55;;;;;;;1.20;0.70;;;24.10;64.70;;;;;;5093305;28;20027;-57
2021/07/09 02:38:20;;;;;;;1.40;0.75;;;24.00;64.20;;;;;;5093357;28;20024;-59
2021/07/09 02:40:46;;;;;;;4.70;0.90;;;23.90;64.90;;;;;;5074244;28;20199;-59
2021/07/09 02:43:12;;;;;;;1.67;0.85;;;23.80;65.20;;;;;;5092994;28;20024;-61
2021/07/09 02:45:38;;;;;;;3.47;0.80;;;23.70;65.70;;;;;;5074464;28;20031;-61
2021/07/09 02:48:03;;;;;;;2.15;1.00;;;23.50;66.00;;;;;;5092369;28;20032;-61
2021/07/09 02:50:29;;;;;;;2.25;0.90;;;23.50;66.80;;;;;;5092648;28;20024;-60
2021/07/09 02:52:55;;;;;;;1.58;0.70;;;23.50;66.60;;;;;;5092845;28;20051;-59
2021/07/09 02:55:22;;;;;;;1.40;0.80;;;23.50;66.00;;;;;;5093198;28;20016;-62
2021/07/09 02:57:48;;;;;;;2.42;0.82;;;23.50;66.70;;;;;;5092497;28;20258;-54
2021/07/09 03:00:16;;;;;;;3.53;0.70;;;23.40;66.40;;;;;;5074558;28;20024;-64
2021/07/09 03:02:42;;;;;;;1.38;0.90;;;23.40;66.20;;;;;;5092460;28;20115;-56
2021/07/09 03:05:09;;;;;;;2.45;0.90;;;23.40;66.20;;;;;;5092972;28;20028;-60
2021/07/09 03:07:36;;;;;;;2.10;0.80;;;23.30;66.50;;;;;;5092756;28;20107;-61
2021/07/09 03:10:04;;;;;;;3.42;0.90;;;23.30;66.60;;;;;;5092794;28;20099;-61
2021/07/09 03:12:29;;;;;;;2.40;1.00;;;23.40;66.80;;;;;;5092216;28;20031;-58
2021/07/09 03:14:55;;;;;;;3.30;0.80;;;23.50;66.50;;;;;;5092689;28;20032;-61
2021/07/09 03:17:21;;;;;;;1.23;0.80;;;23.50;66.50;;;;;;5092378;28;20066;-62
2021/07/09 03:19:47;;;;;;;1.35;0.80;;;23.50;66.70;;;;;;5092098;28;20047;-60
2021/07/09 03:22:12;;;;;;;3.63;1.00;;;23.60;66.40;;;;;;5092351;28;20402;-63
2021/07/09 03:24:38;;;;;;;1.27;0.80;;;23.60;66.30;;;;;;5091617;28;20086;-61
2021/07/09 03:27:05;;;;;;;1.52;0.75;;;23.60;66.10;;;;;;5092101;28;20034;-59
2021/07/09 03:29:31;;;;;;;3.15;0.98;;;23.60;66.10;;;;;;5092045;28;20034;-60
2021/07/09 03:31:57;;;;;;;1.77;0.93;;;23.60;66.20;;;;;;5092064;28;20032;-60
2021/07/09 03:34:23;;;;;;;1.77;0.82;;;23.60;65.90;;;;;;5092270;28;20065;-60
2021/07/09 03:36:50;;;;;;;2.08;1.13;;;23.70;65.90;;;;;;5073361;28;20474;-60
2021/07/09 03:39:17;;;;;;;1.70;0.80;;;23.70;66.00;;;;;;5091932;28;20103;-61
2021/07/09 03:41:43;;;;;;;4.22;0.90;;;23.80;65.80;;;;;;5073565;28;20119;-61
2021/07/09 03:44:09;;;;;;;2.03;1.00;;;23.80;65.70;;;;;;5092293;28;20043;-61
2021/07/09 03:46:36;;;;;;;1.60;0.90;;;23.90;65.50;;;;;;5091717;28;20052;-60
2021/07/09 03:49:03;;;;;;;1.90;1.00;;;23.90;65.30;;;;;;5091984;28;20107;-61
2021/07/09 03:51:28;;;;;;;2.38;0.77;;;24.00;65.10;;;;;;5091713;28;20106;-62
2021/07/09 03:53:57;;;;;;;1.45;0.93;;;24.10;64.70;;;;;;5091505;28;20466;-59
2021/07/09 03:56:24;;;;;;;3.40;1.00;;;24.20;64.60;;;;;;5073962;28;20024;-58
2021/07/09 03:58:50;;;;;;;1.58;0.90;;;24.20;64.80;;;;;;5072532;28;20024;-62
2021/07/09 04:01:16;;;;;;;2.15;1.02;;;24.20;64.50;;;;;;5091507;28;20028;-61
2021/07/09 04:03:42;;;;;;;2.00;0.90;;;24.20;64.40;;;;;;5091355;28;20035;-61
2021/07/09 04:06:07;;;;;;;3.58;1.00;;;24.30;64.00;;;;;;5091957;28;20040;-61
2021/07/09 04:08:33;;;;;;;1.55;1.00;;;24.30;63.60;;;;;;5091407;28;20489;-58
2021/07/09 04:10:59;;;;;;;1.90;0.90;;;24.30;63.50;;;;;;5074512;28;20024;-62
2021/07/09 04:13:25;;;;;;;2.22;1.02;;;24.30;64.10;;;;;;5091377;28;20489;-60
2021/07/09 04:15:51;;;;;;;2.95;1.13;;;24.20;63.70;;;;;;5068411;28;20034;-62
2021/07/09 04:18:16;;;;;;;2.38;1.00;;;24.20;63.50;;;;;;5087838;28;20028;-58
2021/07/09 04:20:42;;;;;;;2.03;0.80;;;24.10;63.50;;;;;;5087445;28;20466;-61
2021/07/09 04:23:08;;;;;;;3.17;1.50;;;24.00;64.30;;;;;;5088816;28;20051;-61
2021/07/09 04:25:34;;;;;;;2.85;1.10;;;24.10;64.00;;;;;;5086708;28;20024;-57
2021/07/09 04:28:00;;;;;;;4.63;1.38;;;24.10;64.00;;;;;;5062870;28;20266;-61
2021/07/09 04:30:26;;;;;;;1.98;0.93;;;24.20;63.70;;;;;;5088339;28;20371;-60
2021/07/09 04:32:51;;;;;;;2.90;0.82;;;24.20;63.60;;;;;;5089197;28;20020;-60
2021/07/09 04:35:17;;;;;;;5.45;1.25;;;24.30;63.30;;;;;;5072349;28;20497;-60
2021/07/09 04:37:43;;;;;;;1.77;0.90;;;24.40;62.90;;;;;;5090698;28;20063;-61
2021/07/09 04:40:10;;;;;;;1.52;0.90;;;24.60;62.50;;;;;;5072720;28;20371;-60
2021/07/09 04:42:36;;;;;;;1.70;0.90;;;24.70;62.00;;;;;;5089947;28;20494;-60
2021/07/09 04:45:01;;;;;;;2.33;1.10;;;24.80;61.50;;;;;;5091424;28;20066;-62
2021/07/09 04:47:27;;;;;;;4.97;0.90;;;24.90;61.10;;;;;;5090508;28;20412;-59
2021/07/09 04:49:53;;;;;;;2.45;1.08;;;24.90;61.20;;;;;;5090241;28;20028;-60
2021/07/09 04:52:18;;;;;;;6.15;1.63;;;24.80;61.20;;;;;;5090705;28;20043;-60
2021/07/09 04:54:44;;;;;;;3.00;0.90;;;24.80;61.30;;;;;;5072072;28;20481;-60
2021/07/09 04:57:10;;;;;;;1.95;0.90;;;24.80;61.40;;;;;;5072685;28;20489;-61
2021/07/09 04:59:36;;;;;;;3.78;1.10;;;24.80;60.90;;;;;;5090454;28;20509;-58
2021/07/09 05:02:02;;;;;;;2.63;1.23;;;24.80;61.30;;;;;;5090236;28;20036;-61
2021/07/09 05:04:28;;;;;;;4.20;0.90;;;24.90;61.00;;;;;;5089925;28;20020;-61
2021/07/09 05:06:54;;;;;;;2.40;1.15;;;25.00;60.80;;;;;;5089960;28;20035;-61
2021/07/09 05:09:19;;;;;;;2.90;0.88;;;25.00;60.50;;;;;;5090419;28;20056;-61
2021/07/09 05:11:45;;;;;;;2.42;1.42;;;25.20;60.30;;;;;;5075041;28;20492;-62
2021/07/09 05:14:12;;;;;;;1.33;0.80;;;25.30;60.10;;;;;;5094642;28;20382;-61
2021/07/09 05:16:38;;;;;;;2.33;1.00;;;25.40;60.40;;;;;;5093175;28;20035;-61
2021/07/09 05:19:04;;;;;;;3.17;1.00;;;25.70;59.20;;;;;;5094429;28;20039;-61
2021/07/09 05:21:31;;;;;;;4.45;1.23;;;25.90;58.60;;;;;;5094104;28;20032;-61
2021/07/09 05:23:56;;;;;;;1.88;0.80;;;26.00;58.10;;;;;;5075941;28;20024;-61
2021/07/09 05:26:22;;;;;;;1.52;1.02;;;25.90;58.10;;;;;;5094063;28;20110;-62
2021/07/09 05:28:48;;;;;;;3.40;0.90;;;25.90;58.10;;;;;;5075710;28;20024;-62
2021/07/09 05:31:15;;;;;;;2.40;1.00;;;25.90;58.10;;;;;;5095010;28;20081;-62
2021/07/09 05:33:42;;;;;;;1.63;0.90;;;26.10;57.50;;;;;;5075266;28;20028;-60
2021/07/09 05:36:07;;;;;;;2.63;0.98;;;26.30;57.20;;;;;;5094216;28;20051;-61
2021/07/09 05:38:33;;;;;;;7.72;0.82;;;26.30;57.20;;;;;;5094282;28;20454;-62
2021/07/09 05:40:59;;;;;;;4.07;1.00;;;26.30;56.90;;;;;;5092998;28;20047;-61
2021/07/09 05:43:25;;;;;;;1.77;0.80;;;26.20;57.10;;;;;;5076092;28;20070;-61
2021/07/09 05:45:51;;;;;;;2.40;1.00;;;26.00;57.60;;;;;;5094017;28;20054;-61
2021/07/09 05:48:17;;;;;;;3.35;0.85;;;25.90;57.60;;;;;;5075331;28;20060;-61
2021/07/09 05:50:44;;;;;;;2.53;0.75;;;25.80;57.80;;;;;;5093318;28;20509;-61
2021/07/09 05:53:09;;;;;;;1.58;0.90;;;25.70;58.00;;;;;;5093744;28;20028;-63
2021/07/09 05:55:35;;;;;;;2.20;0.82;;;25.70;58.20;;;;;;5075317;28;20118;-62
2021/07/09 05:58:01;;;;;;;3.60;0.80;;;25.80;58.20;;;;;;5074247;28;20024;-62
2021/07/09 06:00:26;;;;;;;1.85;0.75;;;25.70;58.10;;;;;;5058494;28;20034;-61
2021/07/09 06:02:52;;;;;;;1.80;0.90;;;25.80;58.00;;;;;;5092884;28;20039;-60
2021/07/09 06:05:18;;;;;;;3.15;0.70;;;25.70;58.00;;;;;;5093133;28;20099;-63
2021/07/09 06:07:43;;;;;;;1.73;0.70;;;25.80;57.80;;;;;;5092681;28;20099;-60
2021/07/09 06:10:10;;;;;;;2.08;0.90;;;25.90;57.50;;;;;;5093805;28;20032;-61
2021/07/09 06:12:35;;;;;;;2.25;1.45;;;25.90;57.50;;;;;;5058194;28;20474;-62
2021/07/09 06:15:01;;;;;;;4.70;1.02;;;25.90;57.40;;;;;;5073903;28;20043;-60
2021/07/09 06:17:27;;;;;;;3.95;0.70;;;26.10;56.30;;;;;;5093138;28;20081;-62
2021/07/09 06:19:53;;;;;;;4.43;1.00;;;26.20;56.00;;;;;;5092029;28;20032;-62
2021/07/09 06:22:20;;;;;;;2.05;0.90;;;26.20;56.30;;;;;;5091790;28;20060;-60
2021/07/09 06:24:45;;;;;;;2.38;0.80;;;26.30;56.10;;;;;;5092331;28;20035;-61
2021/07/09 06:27:11;;;;;;;5.90;1.17;;;26.40;55.40;;;;;;5092871;28;20256;-61
2021/07/09 06:29:37;;;;;;;4.15;1.23;;;26.60;55.30;;;;;;5092882;28;20042;-61
2021/07/09 06:32:03;;;;;;;2.92;1.05;;;26.90;54.20;;;;;;5091993;28;20036;-61
2021/07/09 06:34:28;;;;;;;5.03;1.13;;;26.70;54.50;;;;;;5092181;28;20103;-62
2021/07/09 06:36:54;;;;;;;1.33;0.80;;;26.60;53.80;;;;;;5091490;28;20481;-62
2021/07/09 06:39:20;;;;;;;3.90;1.10;;;26.50;54.00;;;;;;5092094;28;20115;-61
2021/07/09 06:41:45;;;;;;;6.15;0.85;;;26.60;54.40;;;;;;5092201;28;20059;-60
2021/07/09 06:44:11;;;;;;;4.30;1.10;;;26.90;53.70;;;;;;5092438;28;20410;-62
2021/07/09 06:46:37;;;;;;;2.53;0.90;;;27.20;53.60;;;;;;5075224;28;20457;-61
2021/07/09 06:49:02;;;;;;;4.75;1.10;;;27.20;52.30;;;;;;5092547;28;20193;-61
2021/07/09 06:51:28;;;;;;;2.92;1.20;;;27.20;52.00;;;;;;5092848;28;20023;-61
2021/07/09 06:53:54;;;;;;;5.97;1.30;;;27.30;52.10;;;;;;5091501;28;20024;-62
2021/07/09 06:56:19;;;;;;;4.22;1.15;;;27.40;51.70;;;;;;5073857;28;20372;-52
2021/07/09 06:58:45;;;;;;;3.17;1.60;;;27.40;51.90;;;;;;5090630;28;20024;-48
2021/07/09 07:01:11;;;;;;;5.00;1.83;;;27.50;51.40;;;;;;5091718;28;20035;-49
2021/07/09 07:03:36;;;;;;;2.85;1.38;;;27.90;51.00;;;;;;5073360;28;20032;-54
2021/07/09 07:06:02;;;;;;;4.75;1.23;;;28.80;49.10;;;;;;5089999;28;20047;-50
2021/07/09 07:08:28;;;;;;;3.65;1.15;;;29.80;46.40;;;;;;5072928;28;20077;-52
2021/07/09 07:10:55;;;;;;;4.20;1.27;;;30.10;46.00;;;;;;5090608;28;20051;-56
2021/07/09 07:13:25;;;;;;;2.67;1.40;;;30.20;45.20;;;;;;5072864;28;20028;-50
2021/07/09 07:15:51;;;;;;;4.50;1.20;;;30.00;45.40;;;;;;5089521;28;20447;-54
2021/07/09 07:18:18;;;;;;;3.67;1.42;;;29.80;45.90;;;;;;5073007;28;20048;-52
2021/07/09 07:20:45;;;;;;;1.95;1.10;;;29.30;46.50;;;;;;5091079;28;20492;-53
2021/07/09 07:23:16;;;;;;;4.03;1.40;;;28.90;47.20;;;;;;5091336;28;20056;-52
2021/07/09 07:25:42;;;;;;;4.28;1.20;;;28.40;48.20;;;;;;5073393;28;20097;-52
2021/07/09 07:28:08;;;;;;;6.05;1.20;;;28.10;49.00;;;;;;5091061;28;20052;-53
2021/07/09 07:30:35;;;;;;;3.58;1.35;;;28.00;49.30;;;;;;5073820;28;20474;-53
2021/07/09 07:33:01;;;;;;;3.33;1.15;;;28.10;49.10;;;;;;5072956;28;20047;-50
2021/07/09 07:35:28;;;;;;;4.75;1.30;;;28.00;49.10;;;;;;5091654;28;20439;-49
2021/07/09 07:37:53;;;;;;;6.35;1.88;;;28.10;49.20;;;;;;5090751;28;20484;-50
2021/07/09 07:40:19;;;;;;;3.03;1.52;;;28.10;48.90;;;;;;5090819;28;20486;-53
2021/07/09 07:42:46;;;;;;;8.45;1.33;;;28.00;48.90;;;;;;5091216;28;20028;-50
2021/07/09 07:45:12;;;;;;;2.63;1.40;;;28.20;48.70;;;;;;5090868;28;20471;-51
2021/07/09 07:47:39;;;;;;;2.10;1.20;;;28.20;48.70;;;;;;5091362;28;20024;-52
2021/07/09 07:50:06;;;;;;;2.03;1.35;;;28.40;48.50;;;;;;5091040;28;20024;-48
2021/07/09 07:52:32;;;;;;;4.32;1.67;;;28.50;48.20;;;;;;5090416;28;20028;-52
2021/07/09 07:54:58;;;;;;;9.45;2.15;;;28.40;48.30;;;;;;5090787;28;20032;-52
2021/07/09 07:57:26;;;;;;;7.28;2.25;;;28.60;48.20;;;;;;5090910;28;20024;-55
2021/07/09 07:59:52;;;;;;;5.70;2.50;;;28.90;48.30;;;;;;5090855;28;20479;-53
2021/07/09 08:02:17;;;;;;;5.93;1.88;;;29.30;46.90;;;;;;5072635;28;20119;-49
2021/07/09 08:04:45;;;;;;;8.35;1.40;;;29.20;46.50;;;;;;5090796;28;20032;-57
2021/07/09 08:07:11;;;;;;;7.82;1.40;;;28.90;47.00;;;;;;5071716;28;20042;-51
2021/07/09 08:09:37;;;;;;;3.35;1.40;;;28.60;47.60;;;;;;5090423;28;20028;-49
2021/07/09 08:12:03;;;;;;;1.90;1.30;;;28.30;47.80;;;;;;5090178;28;20070;-51
2021/07/09 08:14:29;;;;;;;4.78;1.35;;;28.00;48.40;;;;;;5091201;28;20103;-50
2021/07/09 08:16:55;;;;;;;5.03;1.40;;;27.90;48.90;;;;;;5090990;28;20103;-53
2021/07/09 08:19:21;;;;;;;2.78;1.10;;;27.70;49.50;;;;;;5091329;28;20028;-53
2021/07/09 08:21:48;;;;;;;2.15;1.23;;;27.60;49.70;;;;;;5091283;28;20052;-55
2021/07/09 08:24:18;;;;;;;1.23;0.90;;;27.90;49.20;;;;;;5092156;28;20123;-57
2021/07/09 08:26:46;;;;;;;6.13;1.20;;;28.20;48.30;;;;;;5091674;28;20051;-53
2021/07/09 08:29:12;;;;;;;7.25;2.72;;;28.50;47.70;;;;;;5091067;28;20103;-50
2021/07/09 08:31:38;;;;;;;6.60;2.30;;;28.90;46.80;;;;;;5073663;28;20035;-54
2021/07/09 08:34:04;;;;;;;3.90;1.58;;;28.90;46.30;;;;;;5072035;28;20379;-53
2021/07/09 08:36:31;;;;;;;3.88;1.30;;;28.70;46.50;;;;;;5090410;28;20119;-50
2021/07/09 08:38:59;;;;;;;10.55;1.33;;;28.50;46.90;;;;;;5072678;28;20032;-51
2021/07/09 08:41:26;;;;;;;5.63;1.10;;;28.40;47.20;;;;;;5073445;28;20035;-50
2021/07/09 08:43:51;;;;;;;1.98;1.13;;;28.20;47.30;;;;;;5091171;28;20028;-57
2021/07/09 08:46:18;;;;;;;4.57;1.20;;;28.10;47.20;;;;;;5094524;28;20462;-53
2021/07/09 08:48:44;;;;;;;3.75;0.90;;;28.00;47.60;;;;;;5076901;28;20028;-50
2021/07/09 08:51:11;;;;;;;4.43;1.17;;;28.00;47.40;;;;;;5094402;28;20108;-50
2021/07/09 08:53:38;;;;;;;2.85;0.90;;;28.20;46.90;;;;;;5094618;28;20050;-52
2021/07/09 08:56:34;;;;;;;2.42;0.90;;;29.00;45.60;;;;;;5075953;28;20047;-53
2021/07/09 08:59:00;;;;;;;4.97;1.20;;;29.90;43.50;;;;;;5092966;28;20024;-71
2021/07/09 09:04:51;;;;;;;2.90;1.02;;;29.10;43.60;;;;;;5095314;28;20034;-66
2021/07/09 09:07:17;;;;;;;2.47;1.00;;;28.60;44.90;;;;;;5076235;28;20034;-66
2021/07/09 09:09:42;;;;;;;4.40;1.40;;;28.50;45.40;;;;;;5093168;28;20020;-63
2021/07/09 09:12:15;;;;;;;2.00;1.10;;;28.30;45.60;;;;;;5075200;28;20043;-65
2021/07/09 09:14:46;;;;;;;3.53;1.27;;;28.00;46.10;;;;;;5074968;28;20107;-65
2021/07/09 09:17:31;;;;;;;5.43;1.10;;;28.00;46.80;;;;;;5093236;28;20024;-62
2021/07/09 09:20:14;;;;;;;2.55;1.30;;;28.70;45.40;;;;;;5093518;28;20024;-64
2021/07/09 09:22:49;;;;;;;5.88;1.80;;;28.70;45.10;;;;;;5072088;28;20063;-65
2021/07/09 09:25:20;;;;;;;1.63;1.00;;;28.60;45.40;;;;;;5073462;28;20044;-64
2021/07/09 09:28:07;;;;;;;2.95;1.20;;;28.40;45.40;;;;;;5073324;28;20480;-66
2021/07/09 09:30:34;;;;;;;3.80;1.20;;;28.20;45.80;;;;;;5073593;28;20028;-64
2021/07/09 09:33:03;;;;;;;7.63;1.10;;;28.20;46.00;;;;;;5072754;28;20106;-64
2021/07/09 09:35:37;;;;;;;2.67;1.40;;;28.00;46.30;;;;;;5071375;28;20455;-65
2021/07/09 09:38:08;;;;;;;5.13;1.10;;;27.40;47.20;;;;;;5072454;28;20025;-66
2021/07/09 09:40:35;;;;;;;3.05;1.00;;;27.10;48.30;;;;;;5071963;28;20025;-67
2021/07/09 09:43:15;;;;;;;2.15;1.00;;;27.00;48.50;;;;;;5072644;28;20036;-63
2021/07/09 09:45:42;;;;;;;1.48;0.80;;;27.20;47.90;;;;;;5073109;28;20121;-65
2021/07/09 09:48:12;;;;;;;2.67;0.77;;;27.40;47.00;;;;;;5072277;28;20036;-67
2021/07/09 09:50:42;;;;;;;5.05;0.90;;;27.20;47.20;;;;;;5070705;28;20025;-66
2021/07/09 09:53:08;;;;;;;5.43;0.80;;;27.00;47.70;;;;;;5071069;28;20021;-66
2021/07/09 09:55:34;;;;;;;2.67;0.80;;;26.90;48.00;;;;;;5069331;28;20544;-64
2021/07/09 09:58:16;;;;;;;2.15;0.70;;;26.70;48.20;;;;;;5069074;28;20028;-65
2021/07/09 10:00:46;;;;;;;4.72;1.48;;;26.40;48.60;;;;;;5070655;28;20115;-66
2021/07/09 10:03:12;;;;;;;3.88;0.90;;;26.40;48.90;;;;;;5070741;28;20675;-63
2021/07/09 10:05:41;;;;;;;3.03;0.90;;;26.40;49.30;;;;;;5072888;28;20469;-63
2021/07/09 10:08:12;;;;;;;3.05;0.90;;;26.40;49.40;;;;;;5072493;28;20021;-64
2021/07/09 10:10:39;;;;;;;2.20;1.13;;;26.30;50.40;;;;;;5072632;28;20416;-67
2021/07/09 10:13:06;;;;;;;4.57;1.00;;;26.20;50.00;;;;;;5070295;28;20020;-64
2021/07/09 10:15:32;;;;;;;5.03;0.90;;;26.20;50.00;;;;;;5070173;28;20027;-62
2021/07/09 10:17:59;;;;;;;4.97;1.42;;;26.10;50.10;;;;;;5071941;28;20036;-66
2021/07/09 10:20:25;;;;;;;5.90;1.70;;;26.50;50.00;;;;;;5072241;28;20028;-62
2021/07/09 10:22:51;;;;;;;2.58;1.30;;;26.80;49.30;;;;;;5071991;28;20119;-64
2021/07/09 10:25:19;;;;;;;4.22;1.00;;;27.00;48.90;;;;;;5070919;28;20064;-64
2021/07/09 10:27:45;;;;;;;6.97;1.45;;;27.20;48.40;;;;;;5072636;28;20111;-64
2021/07/09 10:30:12;;;;;;;2.60;1.08;;;27.40;48.00;;;;;;5072448;28;20439;-64
2021/07/09 10:32:48;;;;;;;4.97;1.10;;;27.50;47.50;;;;;;5072485;28;20028;-62
2021/07/09 10:35:35;;;;;;;2.05;1.00;;;27.80;47.00;;;;;;5072246;28;20271;-65
2021/07/09 10:38:11;;;;;;;4.47;1.27;;;27.90;46.50;;;;;;5071838;28;20025;-63
2021/07/09 10:40:37;;;;;;;3.35;1.00;;;27.80;46.70;;;;;;5072306;28;20064;-64
2021/07/09 10:43:04;;;;;;;4.95;1.10;;;27.60;47.00;;;;;;5070206;28;20136;-63
2021/07/09 10:45:31;;;;;;;5.95;1.00;;;27.60;46.50;;;;;;5072205;28;20025;-64
2021/07/09 10:48:02;;;;;;;1.40;0.90;;;27.70;46.70;;;;;;5070403;28;20029;-63
2021/07/09 10:50:58;;;;;;;3.38;0.80;;;27.50;46.80;;;;;;5070553;28;20031;-64
2021/07/09 10:53:29;;;;;;;1.85;0.93;;;27.40;47.30;;;;;;5049517;28;20134;-66
2021/07/09 10:56:05;;;;;;;1.80;0.95;;;27.40;46.30;;;;;;5070423;28;20113;-72
2021/07/09 10:58:40;;;;;;;2.40;0.90;;;27.10;46.50;;;;;;5071678;28;20244;-64
2021/07/09 11:01:10;;;;;;;2.60;0.80;;;27.10;46.50;;;;;;5071081;28;20031;-62
2021/07/09 11:03:40;;;;;;;2.40;0.80;;;27.30;46.20;;;;;;5071791;28;20025;-61
2021/07/09 11:06:22;;;;;;;3.25;0.70;;;27.40;45.90;;;;;;5071510;28;20028;-63
2021/07/09 11:09:06;;;;;;;1.17;0.65;;;27.70;45.30;;;;;;5070182;28;20158;-63
2021/07/09 11:11:43;;;;;;;6.53;0.77;;;28.10;44.60;;;;;;5070316;28;20024;-63
2021/07/09 11:14:08;;;;;;;0.95;0.60;;;27.90;44.10;;;;;;5070625;28;20024;-64
2021/07/09 11:16:38;;;;;;;2.95;0.70;;;27.60;44.30;;;;;;5069674;28;20032;-65
2021/07/09 11:19:12;;;;;;;1.33;0.60;;;27.60;44.50;;;;;;5070623;28;20052;-67
2021/07/09 11:21:37;;;;;;;3.00;0.70;;;27.90;43.90;;;;;;5069460;28;20043;-63
2021/07/09 11:24:03;;;;;;;2.83;0.60;;;28.10;43.40;;;;;;5069301;28;20033;-62
2021/07/09 11:26:33;;;;;;;1.25;0.95;;;28.50;42.80;;;;;;5066844;28;20441;-66
2021/07/09 11:29:00;;;;;;;1.98;0.60;;;28.60;42.60;;;;;;5070130;28;20016;-64
2021/07/09 11:31:37;;;;;;;1.35;0.60;;;28.40;42.40;;;;;;5070017;28;20098;-64
2021/07/09 11:34:04;;;;;;;0.95;0.63;;;28.20;43.00;;;;;;5068349;28;20467;-66
2021/07/09 11:36:46;;;;;;;3.38;0.70;;;28.00;43.40;;;;;;5070494;28;20058;-63
2021/07/09 11:39:22;;;;;;;1.60;0.60;;;27.70;43.90;;;;;;5067930;28;20056;-64
2021/07/09 11:42:11;;;;;;;2.35;1.08;;;27.50;43.80;;;;;;5069025;28;20467;-64
2021/07/09 11:44:48;;;;;;;1.35;0.70;;;27.20;44.30;;;;;;5068757;28;20059;-65
2021/07/09 11:47:13;;;;;;;3.55;0.80;;;27.00;45.00;;;;;;5068146;28;20078;-65
2021/07/09 11:49:41;;;;;;;3.83;1.25;;;26.90;45.10;;;;;;5069189;28;20421;-68
2021/07/09 11:52:12;;;;;;;2.33;0.70;;;26.80;45.10;;;;;;5068357;28;20032;-66
2021/07/09 11:54:41;;;;;;;0.75;0.60;;;26.50;45.70;;;;;;5070258;28;20024;-64
2021/07/09 11:57:13;;;;;;;4.20;1.08;;;26.20;46.30;;;;;;5067926;28;20028;-69
2021/07/09 11:59:40;;;;;;;4.97;2.88;;;26.10;46.60;;;;;;5068149;28;20056;-64
2021/07/09 12:02:10;;;;;;;7.95;4.72;;;26.30;46.60;;;;;;5068965;28;20035;-64
2021/07/09 12:04:40;;;;;;;2.25;1.17;;;26.40;46.50;;;;;;5070227;28;20024;-64
2021/07/09 12:07:26;;;;;;;2.78;1.00;;;26.40;46.30;;;;;;5067504;28;20069;-63
2021/07/09 12:10:03;;;;;;;1.55;0.80;;;26.40;46.40;;;;;;5070257;28;20021;-65
2021/07/09 12:12:33;;;;;;;3.33;0.88;;;26.40;47.00;;;;;;5070665;28;20064;-63
2021/07/09 12:15:04;;;;;;;1.17;0.52;;;26.20;46.40;;;;;;5070069;28;20031;-63
2021/07/09 12:17:33;;;;;;;3.08;1.45;;;26.20;46.50;;;;;;5068759;28;20398;-67
2021/07/09 12:20:09;;;;;;;3.70;1.40;;;26.10;46.60;;;;;;5051587;28;20038;-67
2021/07/09 12:22:39;;;;;;;3.95;1.45;;;26.20;46.70;;;;;;5068572;28;20154;-67
2021/07/09 12:25:14;;;;;;;40.22;27.65;;;26.40;46.30;;;;;;5069418;28;20106;-64
2021/07/09 12:27:41;;;;;;;16.10;10.35;;;26.50;46.20;;;;;;5069088;28;20020;-67
2021/07/09 12:30:09;;;;;;;14.10;9.65;;;26.60;46.10;;;;;;5067957;28;20029;-63
2021/07/09 12:32:55;;;;;;;2.13;1.40;;;26.80;45.80;;;;;;5070119;28;20120;-64
2021/07/09 12:35:23;;;;;;;3.60;1.20;;;27.00;45.10;;;;;;5067972;28;20025;-63
2021/07/09 12:38:11;;;;;;;4.47;0.90;;;27.10;45.30;;;;;;5067978;28;20032;-66
2021/07/09 12:40:47;;;;;;;2.95;0.95;;;27.20;44.40;;;;;;5070118;28;20093;-65
2021/07/09 12:43:18;;;;;;;2.33;1.10;;;27.10;44.40;;;;;;5069350;28;20206;-66
2021/07/09 12:46:06;;;;;;;6.53;1.20;;;27.10;44.60;;;;;;5069847;28;20029;-63
2021/07/09 12:48:33;;;;;;;4.07;1.10;;;27.10;44.50;;;;;;5069769;28;20025;-63
2021/07/09 12:51:00;;;;;;;4.28;1.00;;;27.10;44.50;;;;;;5070108;28;20016;-66
2021/07/09 12:53:27;;;;;;;3.78;1.40;;;27.10;44.40;;;;;;5069508;28;20442;-65